createdAt,value
2024-05-09T00:00:39.880Z,88949.06
2024-05-09T00:03:25.939Z,88949.78
2024-05-09T00:08:52.702Z,88951.97
2024-05-09T00:11:38.146Z,88949.06
2024-05-09T00:14:23.920Z,88949.25
2024-05-09T00:17:08.844Z,88949.06
2024-05-09T00:19:53.975Z,88943.25
2024-05-09T00:22:38.837Z,88942.84
2024-05-09T00:25:24.067Z,88954.81
2024-05-09T00:28:09.166Z,88950.03
2024-05-09T00:30:54.232Z,88948.94
2024-05-09T00:33:39.537Z,88947.56
2024-05-09T00:36:24.859Z,88944.66
2024-05-09T00:39:10.071Z,88952.97
2024-05-09T00:41:54.985Z,88959.22
2024-05-09T00:47:28.878Z,88948.69
2024-05-09T00:50:19.329Z,88946.38
2024-05-09T00:53:08.171Z,88951.81
2024-05-09T00:55:53.103Z,88948.69
2024-05-09T00:58:38.086Z,88949.06
2024-05-09T01:01:23.304Z,88946.28
2024-05-09T01:06:56.774Z,88937.16
2024-05-09T01:09:41.987Z,88943.16
2024-05-09T01:12:27.126Z,88945.91
2024-05-09T01:15:12.002Z,88946.69
2024-05-09T01:17:57.554Z,88938.56
2024-05-09T01:20:44.745Z,88941.88
2024-05-09T01:23:31.029Z,88937.69
2024-05-09T01:26:16.174Z,88946.69
2024-05-09T01:29:01.180Z,88939.25
2024-05-09T01:31:46.372Z,88934.75
2024-05-09T01:34:31.280Z,88941.28
2024-05-09T01:37:16.441Z,88936.06
2024-05-09T01:40:01.354Z,88942.59
2024-05-09T01:42:46.437Z,88935.66
2024-05-09T01:45:31.641Z,88943.44
2024-05-09T01:48:16.886Z,88938.63
2024-05-09T01:51:02.545Z,88935.13
2024-05-09T01:53:47.499Z,88932.72
2024-05-09T01:56:32.848Z,88930.81
2024-05-09T02:02:04.720Z,88931.00
2024-05-09T02:04:50.393Z,88929.50
2024-05-09T02:07:35.591Z,88925.06
2024-05-09T02:13:09.167Z,88929.19
2024-05-09T02:15:54.186Z,88922.38
2024-05-09T02:18:39.526Z,88923.78
2024-05-09T02:21:24.542Z,88921.78
2024-05-09T02:24:09.598Z,88921.38
2024-05-09T02:26:54.556Z,88918.84
2024-05-09T02:29:39.705Z,88920.16
2024-05-09T02:32:24.897Z,88913.84
2024-05-09T02:35:09.840Z,88915.25
2024-05-09T02:37:55.159Z,88909.91
2024-05-09T02:40:40.785Z,88907.91
2024-05-09T02:43:26.198Z,88907.41
2024-05-09T02:46:11.155Z,88903.91
2024-05-09T02:48:56.348Z,88896.16
2024-05-09T02:51:41.433Z,88903.16
2024-05-09T02:54:26.469Z,88901.13
2024-05-09T02:57:11.642Z,88899.22
2024-05-09T02:59:56.569Z,88899.03
2024-05-09T03:02:41.787Z,88899.31
2024-05-09T03:05:27.095Z,88897.22
2024-05-09T03:11:00.387Z,88901.81
2024-05-09T03:13:45.364Z,88902.81
2024-05-09T03:22:08.460Z,88900.06
2024-05-09T03:24:53.573Z,88897.97
2024-05-09T03:27:38.983Z,88893.75
2024-05-09T03:30:31.150Z,88895.72
2024-05-09T03:33:24.940Z,88897.41
2024-05-09T03:36:11.406Z,88900.00
2024-05-09T03:38:56.378Z,88900.00
2024-05-09T03:41:41.557Z,88906.63
2024-05-09T03:44:26.603Z,88905.03
2024-05-09T03:47:12.240Z,88909.03
2024-05-09T03:49:57.217Z,88907.41
2024-05-09T03:52:42.175Z,88902.28
2024-05-09T03:58:08.724Z,88910.16
2024-05-09T04:00:53.618Z,88913.25
2024-05-09T04:03:38.903Z,88911.22
2024-05-09T04:06:23.876Z,88911.50
2024-05-09T04:09:09.176Z,88912.91
2024-05-09T04:11:54.616Z,88914.78
2024-05-09T04:14:40.021Z,88913.91
2024-05-09T04:17:25.320Z,88909.88
2024-05-09T04:20:18.379Z,88912.91
2024-05-09T04:23:09.739Z,88911.72
2024-05-09T04:25:55.139Z,88913.34
2024-05-09T04:28:40.470Z,88922.31
2024-05-09T04:31:25.505Z,88918.94
2024-05-09T04:34:10.893Z,88924.38
2024-05-09T04:36:56.373Z,88923.66
2024-05-09T04:39:41.431Z,88938.56
2024-05-09T04:42:26.540Z,88933.06
2024-05-09T04:45:11.371Z,88935.06
2024-05-09T04:47:56.765Z,88937.22
2024-05-09T04:53:22.407Z,88936.88
2024-05-09T04:56:07.600Z,88934.00
2024-05-09T04:58:52.802Z,88942.44
2024-05-09T05:01:38.033Z,88932.84
2024-05-09T05:04:23.172Z,88936.09
2024-05-09T05:07:08.324Z,88940.16
2024-05-09T05:09:53.442Z,88937.47
2024-05-09T05:12:38.755Z,88939.59
2024-05-09T05:15:23.925Z,88944.41
2024-05-09T05:18:09.326Z,88944.16
2024-05-09T05:20:54.438Z,88950.81
2024-05-09T05:23:39.518Z,88945.53
2024-05-09T05:26:24.626Z,88943.28
2024-05-09T05:29:09.837Z,88944.91
2024-05-09T05:31:55.117Z,88947.25
2024-05-09T05:34:39.997Z,88945.44
2024-05-09T05:37:25.451Z,88944.69
2024-05-09T05:40:14.622Z,88951.81
2024-05-09T05:43:02.722Z,88954.69
2024-05-09T05:45:47.702Z,88944.91
2024-05-09T05:48:32.996Z,88951.00
2024-05-09T05:51:17.891Z,88956.56
2024-05-09T05:54:02.947Z,88956.72
2024-05-09T05:56:48.006Z,88949.03
2024-05-09T05:59:33.141Z,88953.09
2024-05-09T06:02:18.291Z,88949.16
2024-05-09T06:05:03.192Z,88956.28
2024-05-09T06:07:49.220Z,88949.50
2024-05-09T06:10:38.636Z,88952.16
2024-05-09T06:13:25.658Z,88944.53
2024-05-09T06:16:10.786Z,88945.41
2024-05-09T06:18:56.092Z,88946.19
2024-05-09T06:21:41.395Z,88943.00
2024-05-09T06:24:26.411Z,88942.59
2024-05-09T06:27:11.363Z,88946.59
2024-05-09T06:29:56.572Z,88947.53
2024-05-09T06:32:41.659Z,88944.81
2024-05-09T06:35:26.610Z,88945.81
2024-05-09T06:38:12.188Z,88943.72
2024-05-09T06:40:57.305Z,88947.66
2024-05-09T06:43:42.244Z,88951.41
2024-05-09T06:46:27.341Z,88952.03
2024-05-09T06:49:12.576Z,88951.44
2024-05-09T06:51:57.400Z,88943.66
2024-05-09T06:54:42.522Z,88946.88
2024-05-09T06:57:27.394Z,88949.38
2024-05-09T07:00:18.643Z,88942.66
2024-05-09T07:03:08.317Z,88953.56
2024-05-09T07:05:53.806Z,88949.50
2024-05-09T07:08:38.849Z,88949.09
2024-05-09T07:11:24.133Z,88951.91
2024-05-09T07:14:09.061Z,88940.16
2024-05-09T07:16:54.269Z,88952.88
2024-05-09T07:19:39.304Z,88943.91
2024-05-09T07:22:24.646Z,88948.63
2024-05-09T07:25:09.908Z,88945.31
2024-05-09T07:27:54.926Z,88942.28
2024-05-09T07:30:40.158Z,88944.31
2024-05-09T07:33:25.234Z,88941.03
2024-05-09T07:36:10.240Z,88937.13
2024-05-09T07:38:55.266Z,88938.41
2024-05-09T07:41:40.420Z,88930.66
2024-05-09T07:44:25.661Z,88936.63
2024-05-09T07:48:27.500Z,88936.22
2024-05-09T07:53:36.213Z,88925.59
2024-05-09T07:56:10.235Z,88928.69
2024-05-09T07:58:56.764Z,88921.22
2024-05-09T08:01:42.083Z,88924.81
2024-05-09T08:04:27.170Z,88923.28
2024-05-09T08:07:12.176Z,88922.31
2024-05-09T08:09:57.464Z,88925.84
2024-05-09T08:12:42.488Z,88921.59
2024-05-09T08:15:27.830Z,88916.69
2024-05-09T08:18:12.750Z,88923.47
2024-05-09T08:20:57.870Z,88909.63
2024-05-09T08:23:42.895Z,88911.47
2024-05-09T08:26:27.986Z,88910.28
2024-05-09T08:29:13.070Z,88903.25
2024-05-09T08:31:58.133Z,88905.19
2024-05-09T08:34:43.230Z,88898.75
2024-05-09T08:37:32.816Z,88908.69
2024-05-09T08:40:30.584Z,88912.41
2024-05-09T08:43:20.470Z,88912.69
2024-05-09T08:46:05.565Z,88915.44
2024-05-09T08:48:50.852Z,88903.94
2024-05-09T08:51:35.791Z,88905.00
2024-05-09T08:54:20.769Z,88903.25
2024-05-09T08:57:05.964Z,88906.50
2024-05-09T08:59:51.116Z,88903.97
2024-05-09T09:02:36.458Z,88902.41
2024-05-09T09:05:21.338Z,88901.53
2024-05-09T09:08:06.386Z,88894.34
2024-05-09T09:10:51.617Z,88893.63
2024-05-09T09:13:36.488Z,88895.66
2024-05-09T09:16:21.766Z,88886.47
2024-05-09T09:19:06.866Z,88887.66
2024-05-09T09:21:51.994Z,88881.94
2024-05-09T09:24:36.912Z,88887.22
2024-05-09T09:27:22.040Z,88889.31
2024-05-09T09:30:13.270Z,88886.41
2024-05-09T09:33:04.001Z,88883.56
2024-05-09T09:35:48.954Z,88886.69
2024-05-09T09:38:34.180Z,88881.94
2024-05-09T09:41:19.217Z,88891.69
2024-05-09T09:44:04.219Z,88879.16
2024-05-09T09:46:49.426Z,88882.56
2024-05-09T09:49:34.442Z,88884.19
2024-05-09T09:52:19.651Z,88878.94
2024-05-09T09:55:04.686Z,88873.94
2024-05-09T09:57:49.835Z,88879.50
2024-05-09T10:00:34.894Z,88876.66
2024-05-09T10:03:20.145Z,88871.38
2024-05-09T10:06:05.163Z,88873.41
2024-05-09T10:08:50.225Z,88870.91
2024-05-09T10:11:42.044Z,88870.97
2024-05-09T10:14:30.617Z,88873.13
2024-05-09T10:17:15.895Z,88868.00
2024-05-09T10:20:00.772Z,88855.25
2024-05-09T10:22:45.912Z,88862.94
2024-05-09T10:25:31.020Z,88854.50
2024-05-09T10:28:16.316Z,88851.75
2024-05-09T10:31:01.456Z,88856.97
2024-05-09T10:33:46.583Z,88847.47
2024-05-09T10:36:32.102Z,88856.56
2024-05-09T10:39:17.150Z,88845.50
2024-05-09T10:42:02.430Z,88857.25
2024-05-09T10:44:47.540Z,88849.69
2024-05-09T10:47:32.735Z,88847.69
2024-05-09T10:50:25.080Z,88839.78
2024-05-09T10:53:13.738Z,88846.81
2024-05-09T10:55:58.761Z,88846.03
2024-05-09T10:58:43.950Z,88851.56
2024-05-09T11:01:29.161Z,88844.81
2024-05-09T11:04:14.454Z,88846.44
2024-05-09T11:07:01.567Z,88842.34
2024-05-09T11:09:48.728Z,88837.00
2024-05-09T11:12:33.874Z,88838.69
2024-05-09T11:15:18.898Z,88828.44
2024-05-09T11:18:04.010Z,88830.50
2024-05-09T11:20:48.930Z,88837.19
2024-05-09T11:23:33.772Z,88825.09
2024-05-09T11:26:18.922Z,88822.91
2024-05-09T11:29:03.989Z,88825.44
2024-05-09T11:31:49.290Z,88831.97
2024-05-09T11:34:34.525Z,88818.59
2024-05-09T11:37:20.116Z,88818.94
2024-05-09T11:40:09.249Z,88825.47
2024-05-09T11:42:56.736Z,88811.56
2024-05-09T11:45:41.739Z,88810.72
2024-05-09T11:48:27.322Z,88804.47
2024-05-09T11:51:12.449Z,88802.66
2024-05-09T11:53:57.750Z,88803.88
2024-05-09T11:56:42.735Z,88791.94
2024-05-09T11:59:27.998Z,88799.41
2024-05-09T12:02:13.347Z,88797.78
2024-05-09T12:04:58.776Z,88796.63
2024-05-09T12:07:43.867Z,88796.25
2024-05-09T12:10:33.504Z,88796.97
2024-05-09T12:13:20.605Z,88796.09
2024-05-09T12:16:05.538Z,88794.03
2024-05-09T12:18:50.599Z,88788.34
2024-05-09T12:21:35.714Z,88785.84
2024-05-09T12:24:20.720Z,88783.91
2024-05-09T12:27:05.778Z,88779.19
2024-05-09T12:29:51.095Z,88783.34
2024-05-09T12:32:36.222Z,88780.81
2024-05-09T12:35:21.192Z,88770.06
2024-05-09T12:38:06.189Z,88765.38
2024-05-09T12:40:51.519Z,88777.91
2024-05-09T12:43:36.369Z,88773.25
2024-05-09T12:46:21.560Z,88768.53
2024-05-09T12:49:06.980Z,88760.94
2024-05-09T12:51:52.228Z,88769.03
2024-05-09T12:54:37.342Z,88765.25
2024-05-09T12:57:22.306Z,88759.31
2024-05-09T13:00:11.497Z,88765.00
2024-05-09T13:02:59.100Z,88766.09
2024-05-09T13:05:44.479Z,88759.91
2024-05-09T13:08:30.193Z,88751.97
2024-05-09T13:11:15.461Z,88765.59
2024-05-09T13:14:00.416Z,88752.34
2024-05-09T13:16:45.516Z,88757.50
2024-05-09T13:19:30.535Z,88758.31
2024-05-09T13:22:15.743Z,88754.91
2024-05-09T13:25:00.872Z,88754.28
2024-05-09T13:27:45.732Z,88749.44
2024-05-09T13:30:39.055Z,88745.06
2024-05-09T13:33:27.166Z,88749.19
2024-05-09T13:36:12.139Z,88753.28
2024-05-09T13:38:57.289Z,88744.56
2024-05-09T13:41:42.463Z,88748.47
2024-05-09T13:44:27.486Z,88737.16
2024-05-09T13:47:12.623Z,88734.97
2024-05-09T13:49:57.576Z,88729.84
2024-05-09T13:52:42.774Z,88731.03
2024-05-09T13:55:27.740Z,88730.16
2024-05-09T13:58:12.907Z,88729.44
2024-05-09T14:00:57.992Z,88727.22
2024-05-09T14:03:42.954Z,88728.25
2024-05-09T14:06:27.928Z,88722.31
2024-05-09T14:09:13.064Z,88721.03
2024-05-09T14:11:58.299Z,88716.59
2024-05-09T14:14:43.215Z,88720.66
2024-05-09T14:17:28.487Z,88715.16
2024-05-09T14:20:16.686Z,88716.25
2024-05-09T14:23:08.254Z,88718.38
2024-05-09T14:25:53.222Z,88711.84
2024-05-09T14:28:38.323Z,88704.63
2024-05-09T14:31:23.348Z,88704.53
2024-05-09T14:34:08.748Z,88700.44
2024-05-09T14:36:54.172Z,88698.97
2024-05-09T14:39:39.050Z,88698.06
2024-05-09T14:42:24.055Z,88707.47
2024-05-09T14:45:09.096Z,88698.72
2024-05-09T14:47:54.166Z,88701.13
2024-05-09T14:50:40.566Z,88699.13
2024-05-09T14:53:26.330Z,88694.56
2024-05-09T14:56:11.562Z,88702.34
2024-05-09T14:58:56.497Z,88688.44
2024-05-09T15:01:41.761Z,88686.53
2024-05-09T15:04:26.650Z,88683.03
2024-05-09T15:07:11.907Z,88690.97
2024-05-09T15:09:56.940Z,88695.16
2024-05-09T15:12:41.814Z,88689.19
2024-05-09T15:15:26.981Z,88692.94
2024-05-09T15:18:12.065Z,88695.31
2024-05-09T15:20:57.283Z,88688.72
2024-05-09T15:23:42.194Z,88688.81
2024-05-09T15:26:27.260Z,88690.44
2024-05-09T15:29:12.275Z,88696.19
2024-05-09T15:31:57.478Z,88693.34
2024-05-09T15:34:42.384Z,88699.31
2024-05-09T15:37:27.384Z,88687.72
2024-05-09T15:40:18.491Z,88688.97
2024-05-09T15:43:11.674Z,88686.91
2024-05-09T15:45:56.911Z,88682.19
2024-05-09T15:48:44.350Z,88682.41
2024-05-09T15:51:29.862Z,88682.59
2024-05-09T15:54:14.971Z,88687.69
2024-05-09T15:56:59.960Z,88678.44
2024-05-09T15:59:45.130Z,88688.75
2024-05-09T16:02:30.355Z,88685.16
2024-05-09T16:05:15.401Z,88692.69
2024-05-09T16:08:00.361Z,88683.19
2024-05-09T16:10:46.352Z,88680.06
2024-05-09T16:13:32.146Z,88678.88
2024-05-09T16:16:17.215Z,88684.25
2024-05-09T16:19:02.333Z,88685.00
2024-05-09T16:21:47.531Z,88687.28
2024-05-09T16:24:32.498Z,88683.41
2024-05-09T16:27:17.478Z,88683.66
2024-05-09T16:30:04.144Z,88686.69
2024-05-09T16:32:51.670Z,88681.22
2024-05-09T16:35:36.549Z,88686.94
2024-05-09T16:38:21.792Z,88684.75
2024-05-09T16:41:06.812Z,88685.06
2024-05-09T16:43:51.787Z,88684.72
2024-05-09T16:46:36.846Z,88687.38
2024-05-09T16:49:21.949Z,88682.06
2024-05-09T16:52:07.162Z,88686.38
2024-05-09T16:54:52.203Z,88688.91
2024-05-09T16:57:37.315Z,88690.44
2024-05-09T17:00:31.494Z,88686.38
2024-05-09T17:03:24.901Z,88687.25
2024-05-09T17:06:09.922Z,88688.66
2024-05-09T17:08:55.675Z,88685.47
2024-05-09T17:11:44.106Z,88685.34
2024-05-09T17:14:29.372Z,88688.69
2024-05-09T17:17:14.406Z,88698.84
2024-05-09T17:19:59.414Z,88690.81
2024-05-09T17:22:44.513Z,88699.41
2024-05-09T17:25:29.761Z,88701.50
2024-05-09T17:28:14.807Z,88698.03
2024-05-09T17:30:59.746Z,88705.09
2024-05-09T17:33:45.071Z,88707.06
2024-05-09T17:36:29.867Z,88704.84
2024-05-09T17:39:15.018Z,88705.66
2024-05-09T17:42:00.055Z,88708.13
2024-05-09T17:44:45.262Z,88717.13
2024-05-09T17:47:30.432Z,88716.13
2024-05-09T17:50:23.738Z,88712.06
2024-05-09T17:53:12.582Z,88715.81
2024-05-09T17:55:57.740Z,88721.66
2024-05-09T17:58:42.641Z,88713.16
2024-05-09T18:01:27.796Z,88709.34
2024-05-09T18:04:12.991Z,88713.88
2024-05-09T18:06:58.002Z,88720.97
2024-05-09T18:09:43.147Z,88721.31
2024-05-09T18:12:28.292Z,88725.72
2024-05-09T18:15:13.310Z,88728.50
2024-05-09T18:17:58.503Z,88737.94
2024-05-09T18:20:45.730Z,88742.91
2024-05-09T18:23:31.517Z,88740.66
2024-05-09T18:26:16.479Z,88743.94
2024-05-09T18:29:01.895Z,88740.94
2024-05-09T18:31:46.860Z,88738.34
2024-05-09T18:34:32.255Z,88750.81
2024-05-09T18:37:17.294Z,88751.69
2024-05-09T18:40:02.325Z,88754.72
2024-05-09T18:42:48.018Z,88755.00
2024-05-09T18:45:32.912Z,88754.78
2024-05-09T18:48:18.052Z,88760.88
2024-05-09T18:51:03.174Z,88753.84
2024-05-09T18:53:48.321Z,88751.66
2024-05-09T18:56:33.442Z,88755.72
2024-05-09T18:59:18.499Z,88752.75
2024-05-09T19:02:03.797Z,88759.25
2024-05-09T19:04:49.287Z,88762.44
2024-05-09T19:07:34.153Z,88773.88
2024-05-09T19:10:22.917Z,88773.91
2024-05-09T19:13:13.433Z,88782.94
2024-05-09T19:15:59.735Z,88784.41
2024-05-09T19:21:25.901Z,88789.72
2024-05-09T19:24:11.110Z,88795.13
2024-05-09T19:26:56.351Z,88802.13
2024-05-09T19:29:41.512Z,88798.34
2024-05-09T19:32:26.767Z,88807.84
2024-05-09T19:35:11.838Z,88808.41
2024-05-09T19:37:56.808Z,88811.59
2024-05-09T19:40:41.992Z,88816.47
2024-05-09T19:43:27.212Z,88820.38
2024-05-09T19:46:12.174Z,88817.78
2024-05-09T19:48:57.710Z,88826.94
2024-05-09T19:51:42.942Z,88829.41
2024-05-09T19:54:28.033Z,88827.53
2024-05-09T19:57:13.237Z,88837.88
2024-05-09T19:59:58.406Z,88830.19
2024-05-09T20:02:43.738Z,88836.16
2024-05-09T20:08:17.097Z,88837.06
2024-05-09T20:11:02.150Z,88849.19
2024-05-09T20:13:47.280Z,88849.56
2024-05-09T20:16:32.515Z,88848.53
2024-05-09T20:19:17.562Z,88853.09
2024-05-09T20:22:02.655Z,88851.00
2024-05-09T20:24:47.688Z,88852.41
2024-05-09T20:27:32.902Z,88849.63
2024-05-09T20:30:25.422Z,88853.63
2024-05-09T20:33:16.720Z,88849.25
2024-05-09T20:36:02.576Z,88856.09
2024-05-09T20:38:47.648Z,88858.38
2024-05-09T20:41:35.172Z,88851.03
2024-05-09T20:44:20.994Z,88857.88
2024-05-09T20:47:05.972Z,88862.41
2024-05-09T20:49:51.250Z,88856.63
2024-05-09T20:52:36.250Z,88858.72
2024-05-09T20:55:21.459Z,88865.03
2024-05-09T20:58:06.407Z,88873.94
2024-05-09T21:00:51.606Z,88868.16
2024-05-09T21:03:36.572Z,88869.03
2024-05-09T21:06:21.518Z,88875.69
2024-05-09T21:09:06.684Z,88881.28
2024-05-09T21:11:51.632Z,88877.09
2024-05-09T21:14:36.781Z,88878.97
2024-05-09T21:17:21.863Z,88878.13
2024-05-09T21:20:11.690Z,88877.59
2024-05-09T21:23:02.732Z,88873.06
2024-05-09T21:25:47.670Z,88874.09
2024-05-09T21:28:32.749Z,88878.06
2024-05-09T21:31:17.848Z,88875.06
2024-05-09T21:34:02.872Z,88878.56
2024-05-09T21:36:47.911Z,88878.72
2024-05-09T21:39:33.020Z,88880.28
2024-05-09T21:42:17.988Z,88883.44
2024-05-09T21:45:03.245Z,88890.09
2024-05-09T21:47:48.335Z,88874.00
2024-05-09T21:50:39.713Z,88877.81
2024-05-09T21:53:26.896Z,88885.16
2024-05-09T21:56:11.975Z,88885.31
2024-05-09T21:58:57.092Z,88879.38
2024-05-09T22:01:42.374Z,88884.75
2024-05-09T22:04:27.448Z,88887.00
2024-05-09T22:07:12.665Z,88887.72
2024-05-09T22:09:57.688Z,88890.19
2024-05-09T22:12:42.863Z,88890.13
2024-05-09T22:15:27.908Z,88897.09
2024-05-09T22:18:12.996Z,88900.44
2024-05-09T22:20:57.906Z,88893.56
2024-05-09T22:23:43.076Z,88898.44
2024-05-09T22:26:28.231Z,88903.16
2024-05-09T22:29:13.290Z,88908.56
2024-05-09T22:31:58.433Z,88905.25
2024-05-09T22:34:43.487Z,88902.66
2024-05-09T22:37:28.533Z,88907.00
2024-05-09T22:40:20.706Z,88904.91
2024-05-09T22:43:13.331Z,88903.13
2024-05-09T22:45:58.484Z,88914.94
2024-05-09T22:51:24.920Z,88908.84
2024-05-09T22:54:10.102Z,88905.16
2024-05-09T22:56:55.278Z,88903.72
2024-05-09T22:59:40.297Z,88906.91
2024-05-09T23:02:25.544Z,88904.44
2024-05-09T23:08:08.263Z,88904.13
2024-05-09T23:13:35.109Z,88902.84
2024-05-09T23:16:20.103Z,88913.97
2024-05-09T23:19:05.304Z,88906.09
2024-05-09T23:21:50.853Z,88901.44
2024-05-09T23:24:35.919Z,88908.75
2024-05-09T23:27:20.982Z,88904.03
2024-05-09T23:30:09.571Z,88913.81
2024-05-09T23:32:57.487Z,88911.38
2024-05-09T23:35:42.473Z,88906.50
2024-05-09T23:38:27.475Z,88909.78
2024-05-09T23:41:12.713Z,88909.03
2024-05-09T23:46:42.200Z,88896.72
2024-05-09T23:49:27.493Z,88893.06
2024-05-09T23:52:12.776Z,88898.28
2024-05-09T23:54:57.660Z,88898.47
2024-05-09T23:57:42.833Z,88887.19
